sensor_id;sensor_type;location;lat;lon;timestamp;P1;durP1;ratioP1;P2;durP2;ratioP2
84101;SDS011;74198;51.618;8.334;2024-01-15T00:00:49;24.35;;;11.25;;
84101;SDS011;74198;51.618;8.334;2024-01-15T00:03:15;27.67;;;12.57;;
84101;SDS011;74198;51.618;8.334;2024-01-15T00:05:41;22.83;;;11.30;;
84101;SDS011;74198;51.618;8.334;2024-01-15T00:08:07;21.67;;;8.90;;
84101;SDS011;74198;51.618;8.334;2024-01-15T00:10:33;19.48;;;8.23;;
84101;SDS011;74198;51.618;8.334;2024-01-15T00:12:59;21.75;;;9.70;;
84101;SDS011;74198;51.618;8.334;2024-01-15T00:15:25;20.77;;;8.52;;
84101;SDS011;74198;51.618;8.334;2024-01-15T00:17:53;21.77;;;10.07;;
84101;SDS011;74198;51.618;8.334;2024-01-15T00:20:19;14.18;;;6.78;;
84101;SDS011;74198;51.618;8.334;2024-01-15T00:22:45;25.60;;;13.02;;
84101;SDS011;74198;51.618;8.334;2024-01-15T00:25:11;24.10;;;11.70;;
84101;SDS011;74198;51.618;8.334;2024-01-15T00:27:37;25.33;;;11.38;;
84101;SDS011;74198;51.618;8.334;2024-01-15T00:30:03;23.08;;;10.77;;
84101;SDS011;74198;51.618;8.334;2024-01-15T00:32:29;24.52;;;10.90;;
84101;SDS011;74198;51.618;8.334;2024-01-15T00:34:55;27.65;;;13.05;;
84101;SDS011;74198;51.618;8.334;2024-01-15T00:37:21;28.73;;;11.55;;
84101;SDS011;74198;51.618;8.334;2024-01-15T00:39:47;29.08;;;12.93;;
84101;SDS011;74198;51.618;8.334;2024-01-15T00:42:13;24.52;;;11.10;;
84101;SDS011;74198;51.618;8.334;2024-01-15T00:44:39;22.60;;;10.07;;
84101;SDS011;74198;51.618;8.334;2024-01-15T00:47:05;33.33;;;15.32;;
84101;SDS011;74198;51.618;8.334;2024-01-15T00:49:31;26.65;;;12.68;;
84101;SDS011;74198;51.618;8.334;2024-01-15T00:51:57;28.45;;;11.63;;
84101;SDS011;74198;51.618;8.334;2024-01-15T00:54:23;21.58;;;8.95;;
84101;SDS011;74198;51.618;8.334;2024-01-15T00:56:49;32.17;;;13.13;;
84101;SDS011;74198;51.618;8.334;2024-01-15T00:59:15;25.98;;;9.73;;
84101;SDS011;74198;51.618;8.334;2024-01-15T01:01:41;24.20;;;10.32;;
84101;SDS011;74198;51.618;8.334;2024-01-15T01:04:08;29.58;;;13.68;;
84101;SDS011;74198;51.618;8.334;2024-01-15T01:06:34;23.83;;;10.95;;
84101;SDS011;74198;51.618;8.334;2024-01-15T01:09:00;34.45;;;15.13;;
84101;SDS011;74198;51.618;8.334;2024-01-15T01:11:26;21.63;;;9.73;;
84101;SDS011;74198;51.618;8.334;2024-01-15T01:13:52;22.75;;;11.63;;
84101;SDS011;74198;51.618;8.334;2024-01-15T01:16:18;32.70;;;14.65;;
84101;SDS011;74198;51.618;8.334;2024-01-15T01:18:44;35.42;;;14.23;;
84101;SDS011;74198;51.618;8.334;2024-01-15T01:21:10;29.45;;;13.20;;
84101;SDS011;74198;51.618;8.334;2024-01-15T01:23:36;30.80;;;13.57;;
84101;SDS011;74198;51.618;8.334;2024-01-15T01:26:02;28.98;;;11.98;;
84101;SDS011;74198;51.618;8.334;2024-01-15T01:28:28;27.92;;;12.00;;
84101;SDS011;74198;51.618;8.334;2024-01-15T01:30:54;28.35;;;12.10;;
84101;SDS011;74198;51.618;8.334;2024-01-15T01:33:20;32.40;;;11.35;;
84101;SDS011;74198;51.618;8.334;2024-01-15T01:35:46;30.85;;;11.98;;
84101;SDS011;74198;51.618;8.334;2024-01-15T01:38:12;15.25;;;7.63;;
84101;SDS011;74198;51.618;8.334;2024-01-15T01:40:38;21.63;;;10.48;;
84101;SDS011;74198;51.618;8.334;2024-01-15T01:43:04;32.90;;;14.63;;
84101;SDS011;74198;51.618;8.334;2024-01-15T01:45:30;28.98;;;10.90;;
84101;SDS011;74198;51.618;8.334;2024-01-15T01:47:56;25.58;;;12.20;;
84101;SDS011;74198;51.618;8.334;2024-01-15T01:50:22;21.45;;;8.98;;
84101;SDS011;74198;51.618;8.334;2024-01-15T01:52:49;27.50;;;11.80;;
84101;SDS011;74198;51.618;8.334;2024-01-15T01:55:15;27.42;;;12.07;;
84101;SDS011;74198;51.618;8.334;2024-01-15T01:57:41;24.98;;;7.57;;
84101;SDS011;74198;51.618;8.334;2024-01-15T02:00:08;32.78;;;14.60;;
84101;SDS011;74198;51.618;8.334;2024-01-15T02:02:34;30.98;;;12.38;;
84101;SDS011;74198;51.618;8.334;2024-01-15T02:05:00;33.30;;;14.23;;
84101;SDS011;74198;51.618;8.334;2024-01-15T02:07:26;25.48;;;10.93;;
84101;SDS011;74198;51.618;8.334;2024-01-15T02:09:52;30.23;;;12.52;;
84101;SDS011;74198;51.618;8.334;2024-01-15T02:12:18;29.40;;;12.35;;
84101;SDS011;74198;51.618;8.334;2024-01-15T02:14:44;32.97;;;12.88;;
84101;SDS011;74198;51.618;8.334;2024-01-15T02:17:10;29.33;;;12.82;;
84101;SDS011;74198;51.618;8.334;2024-01-15T02:19:36;31.95;;;13.95;;
84101;SDS011;74198;51.618;8.334;2024-01-15T02:22:04;19.60;;;9.75;;
84101;SDS011;74198;51.618;8.334;2024-01-15T02:24:30;15.98;;;6.47;;
84101;SDS011;74198;51.618;8.334;2024-01-15T02:26:56;37.17;;;13.93;;
84101;SDS011;74198;51.618;8.334;2024-01-15T02:29:22;17.02;;;9.10;;
84101;SDS011;74198;51.618;8.334;2024-01-15T02:31:48;33.60;;;14.50;;
84101;SDS011;74198;51.618;8.334;2024-01-15T02:34:14;17.30;;;6.30;;
84101;SDS011;74198;51.618;8.334;2024-01-15T02:36:40;27.25;;;9.90;;
84101;SDS011;74198;51.618;8.334;2024-01-15T02:39:06;31.25;;;11.93;;
84101;SDS011;74198;51.618;8.334;2024-01-15T02:41:32;25.38;;;12.20;;
84101;SDS011;74198;51.618;8.334;2024-01-15T02:43:58;25.23;;;10.65;;
84101;SDS011;74198;51.618;8.334;2024-01-15T02:46:24;22.92;;;10.93;;
84101;SDS011;74198;51.618;8.334;2024-01-15T02:48:50;20.00;;;8.70;;
84101;SDS011;74198;51.618;8.334;2024-01-15T02:51:16;17.92;;;8.15;;
84101;SDS011;74198;51.618;8.334;2024-01-15T02:53:41;26.02;;;10.02;;
84101;SDS011;74198;51.618;8.334;2024-01-15T02:56:07;24.35;;;10.50;;
84101;SDS011;74198;51.618;8.334;2024-01-15T02:58:33;27.85;;;11.20;;
84101;SDS011;74198;51.618;8.334;2024-01-15T03:00:59;25.42;;;10.45;;
84101;SDS011;74198;51.618;8.334;2024-01-15T03:03:25;19.23;;;8.55;;
84101;SDS011;74198;51.618;8.334;2024-01-15T03:05:51;22.42;;;9.68;;
84101;SDS011;74198;51.618;8.334;2024-01-15T03:08:17;22.48;;;10.60;;
84101;SDS011;74198;51.618;8.334;2024-01-15T03:10:43;28.65;;;10.32;;
84101;SDS011;74198;51.618;8.334;2024-01-15T03:13:09;18.65;;;8.63;;
84101;SDS011;74198;51.618;8.334;2024-01-15T03:15:35;25.92;;;11.05;;
84101;SDS011;74198;51.618;8.334;2024-01-15T03:18:01;29.13;;;8.70;;
84101;SDS011;74198;51.618;8.334;2024-01-15T03:20:27;17.13;;;7.53;;
84101;SDS011;74198;51.618;8.334;2024-01-15T03:22:53;18.15;;;6.60;;
84101;SDS011;74198;51.618;8.334;2024-01-15T03:25:19;23.02;;;9.23;;
84101;SDS011;74198;51.618;8.334;2024-01-15T03:27:45;25.25;;;9.15;;
84101;SDS011;74198;51.618;8.334;2024-01-15T03:30:11;16.80;;;7.30;;
84101;SDS011;74198;51.618;8.334;2024-01-15T03:32:37;21.23;;;8.90;;
84101;SDS011;74198;51.618;8.334;2024-01-15T03:35:03;31.13;;;11.65;;
84101;SDS011;74198;51.618;8.334;2024-01-15T03:37:29;18.90;;;9.10;;
84101;SDS011;74198;51.618;8.334;2024-01-15T03:39:55;17.80;;;8.70;;
84101;SDS011;74198;51.618;8.334;2024-01-15T03:42:21;25.33;;;10.70;;
84101;SDS011;74198;51.618;8.334;2024-01-15T03:44:47;21.20;;;8.13;;
84101;SDS011;74198;51.618;8.334;2024-01-15T03:47:13;20.85;;;7.97;;
84101;SDS011;74198;51.618;8.334;2024-01-15T03:49:39;17.33;;;7.40;;
84101;SDS011;74198;51.618;8.334;2024-01-15T03:52:05;23.30;;;10.00;;
84101;SDS011;74198;51.618;8.334;2024-01-15T03:54:31;20.42;;;8.18;;
84101;SDS011;74198;51.618;8.334;2024-01-15T03:56:57;18.52;;;8.55;;
84101;SDS011;74198;51.618;8.334;2024-01-15T03:59:23;22.25;;;10.00;;
84101;SDS011;74198;51.618;8.334;2024-01-15T04:01:49;19.92;;;9.20;;
84101;SDS011;74198;51.618;8.334;2024-01-15T04:04:18;20.77;;;8.48;;
84101;SDS011;74198;51.618;8.334;2024-01-15T04:06:44;14.57;;;7.00;;
84101;SDS011;74198;51.618;8.334;2024-01-15T04:09:11;21.70;;;7.72;;
84101;SDS011;74198;51.618;8.334;2024-01-15T04:11:38;22.05;;;8.13;;
84101;SDS011;74198;51.618;8.334;2024-01-15T04:14:04;21.55;;;8.75;;
84101;SDS011;74198;51.618;8.334;2024-01-15T04:16:30;16.17;;;6.43;;
84101;SDS011;74198;51.618;8.334;2024-01-15T04:18:56;19.95;;;8.70;;
84101;SDS011;74198;51.618;8.334;2024-01-15T04:21:23;21.67;;;9.05;;
84101;SDS011;74198;51.618;8.334;2024-01-15T04:23:49;19.42;;;8.70;;
84101;SDS011;74198;51.618;8.334;2024-01-15T04:26:15;23.15;;;8.90;;
84101;SDS011;74198;51.618;8.334;2024-01-15T04:28:41;22.25;;;9.40;;
84101;SDS011;74198;51.618;8.334;2024-01-15T04:31:07;19.67;;;8.38;;
84101;SDS011;74198;51.618;8.334;2024-01-15T04:33:33;15.27;;;7.05;;
84101;SDS011;74198;51.618;8.334;2024-01-15T04:36:03;21.40;;;8.13;;
84101;SDS011;74198;51.618;8.334;2024-01-15T04:38:30;20.02;;;8.32;;
84101;SDS011;74198;51.618;8.334;2024-01-15T04:40:57;17.95;;;8.00;;
84101;SDS011;74198;51.618;8.334;2024-01-15T04:43:23;18.42;;;7.85;;
84101;SDS011;74198;51.618;8.334;2024-01-15T04:45:49;15.93;;;8.13;;
84101;SDS011;74198;51.618;8.334;2024-01-15T04:48:15;20.30;;;8.50;;
84101;SDS011;74198;51.618;8.334;2024-01-15T04:50:41;18.52;;;8.52;;
84101;SDS011;74198;51.618;8.334;2024-01-15T04:53:07;23.15;;;9.88;;
84101;SDS011;74198;51.618;8.334;2024-01-15T04:55:33;19.70;;;9.32;;
84101;SDS011;74198;51.618;8.334;2024-01-15T04:57:59;11.98;;;5.53;;
84101;SDS011;74198;51.618;8.334;2024-01-15T05:00:25;17.42;;;8.27;;
84101;SDS011;74198;51.618;8.334;2024-01-15T05:02:51;21.55;;;9.38;;
84101;SDS011;74198;51.618;8.334;2024-01-15T05:05:17;14.23;;;6.90;;
84101;SDS011;74198;51.618;8.334;2024-01-15T05:07:43;19.45;;;7.95;;
84101;SDS011;74198;51.618;8.334;2024-01-15T05:10:09;15.45;;;6.70;;
84101;SDS011;74198;51.618;8.334;2024-01-15T05:12:35;16.15;;;6.57;;
84101;SDS011;74198;51.618;8.334;2024-01-15T05:15:01;14.10;;;5.75;;
84101;SDS011;74198;51.618;8.334;2024-01-15T05:17:27;16.35;;;6.45;;
84101;SDS011;74198;51.618;8.334;2024-01-15T05:19:53;12.93;;;5.82;;
84101;SDS011;74198;51.618;8.334;2024-01-15T05:22:19;15.70;;;6.60;;
84101;SDS011;74198;51.618;8.334;2024-01-15T05:24:46;18.80;;;6.10;;
84101;SDS011;74198;51.618;8.334;2024-01-15T05:27:12;17.50;;;8.23;;
84101;SDS011;74198;51.618;8.334;2024-01-15T05:29:38;8.15;;;5.13;;
84101;SDS011;74198;51.618;8.334;2024-01-15T05:32:04;21.48;;;7.65;;
84101;SDS011;74198;51.618;8.334;2024-01-15T05:34:30;22.50;;;9.55;;
84101;SDS011;74198;51.618;8.334;2024-01-15T05:36:56;23.80;;;10.30;;
84101;SDS011;74198;51.618;8.334;2024-01-15T05:39:22;18.73;;;7.55;;
84101;SDS011;74198;51.618;8.334;2024-01-15T05:41:48;16.73;;;7.35;;
84101;SDS011;74198;51.618;8.334;2024-01-15T05:44:14;19.83;;;8.23;;
84101;SDS011;74198;51.618;8.334;2024-01-15T05:46:40;16.83;;;7.68;;
84101;SDS011;74198;51.618;8.334;2024-01-15T05:49:06;17.80;;;6.55;;
84101;SDS011;74198;51.618;8.334;2024-01-15T05:51:32;19.17;;;7.05;;
84101;SDS011;74198;51.618;8.334;2024-01-15T05:53:58;18.45;;;8.50;;
84101;SDS011;74198;51.618;8.334;2024-01-15T05:56:24;13.40;;;7.63;;
84101;SDS011;74198;51.618;8.334;2024-01-15T05:58:50;18.65;;;8.52;;
84101;SDS011;74198;51.618;8.334;2024-01-15T06:01:16;14.77;;;7.35;;
84101;SDS011;74198;51.618;8.334;2024-01-15T06:03:42;21.58;;;8.57;;
84101;SDS011;74198;51.618;8.334;2024-01-15T06:06:08;19.65;;;8.68;;
84101;SDS011;74198;51.618;8.334;2024-01-15T06:08:34;18.23;;;7.47;;
84101;SDS011;74198;51.618;8.334;2024-01-15T06:11:00;16.60;;;7.20;;
84101;SDS011;74198;51.618;8.334;2024-01-15T06:13:26;14.82;;;7.15;;
84101;SDS011;74198;51.618;8.334;2024-01-15T06:15:52;18.65;;;7.63;;
84101;SDS011;74198;51.618;8.334;2024-01-15T06:18:18;19.38;;;7.05;;
84101;SDS011;74198;51.618;8.334;2024-01-15T06:20:44;17.38;;;7.10;;
84101;SDS011;74198;51.618;8.334;2024-01-15T06:23:10;16.95;;;6.65;;
84101;SDS011;74198;51.618;8.334;2024-01-15T06:25:36;17.00;;;7.00;;
84101;SDS011;74198;51.618;8.334;2024-01-15T06:28:02;17.60;;;6.53;;
84101;SDS011;74198;51.618;8.334;2024-01-15T06:30:30;14.68;;;6.90;;
84101;SDS011;74198;51.618;8.334;2024-01-15T06:32:56;17.45;;;8.18;;
84101;SDS011;74198;51.618;8.334;2024-01-15T06:35:22;14.13;;;6.85;;
84101;SDS011;74198;51.618;8.334;2024-01-15T06:37:48;16.95;;;7.05;;
84101;SDS011;74198;51.618;8.334;2024-01-15T06:40:14;15.07;;;7.03;;
84101;SDS011;74198;51.618;8.334;2024-01-15T06:42:40;17.38;;;6.93;;
84101;SDS011;74198;51.618;8.334;2024-01-15T06:45:06;14.65;;;6.80;;
84101;SDS011;74198;51.618;8.334;2024-01-15T06:47:33;13.05;;;6.65;;
84101;SDS011;74198;51.618;8.334;2024-01-15T06:49:58;19.05;;;7.00;;
84101;SDS011;74198;51.618;8.334;2024-01-15T06:52:24;16.23;;;5.82;;
84101;SDS011;74198;51.618;8.334;2024-01-15T06:54:50;18.90;;;6.20;;
84101;SDS011;74198;51.618;8.334;2024-01-15T06:57:16;17.38;;;6.82;;
84101;SDS011;74198;51.618;8.334;2024-01-15T06:59:45;8.10;;;4.43;;
84101;SDS011;74198;51.618;8.334;2024-01-15T07:02:10;19.00;;;8.77;;
84101;SDS011;74198;51.618;8.334;2024-01-15T07:04:37;15.77;;;7.13;;
84101;SDS011;74198;51.618;8.334;2024-01-15T07:07:03;15.38;;;6.53;;
84101;SDS011;74198;51.618;8.334;2024-01-15T07:09:29;17.33;;;7.22;;
84101;SDS011;74198;51.618;8.334;2024-01-15T07:11:55;15.45;;;6.78;;
84101;SDS011;74198;51.618;8.334;2024-01-15T07:14:23;19.58;;;7.82;;
84101;SDS011;74198;51.618;8.334;2024-01-15T07:16:49;15.80;;;7.50;;
84101;SDS011;74198;51.618;8.334;2024-01-15T07:19:15;16.50;;;6.88;;
84101;SDS011;74198;51.618;8.334;2024-01-15T07:21:41;16.95;;;6.90;;
84101;SDS011;74198;51.618;8.334;2024-01-15T07:24:08;19.85;;;7.93;;
84101;SDS011;74198;51.618;8.334;2024-01-15T07:26:35;15.23;;;7.65;;
84101;SDS011;74198;51.618;8.334;2024-01-15T07:29:01;9.43;;;4.72;;
84101;SDS011;74198;51.618;8.334;2024-01-15T07:31:28;19.27;;;8.57;;
84101;SDS011;74198;51.618;8.334;2024-01-15T07:33:54;15.52;;;7.10;;
84101;SDS011;74198;51.618;8.334;2024-01-15T07:36:20;17.98;;;7.55;;
84101;SDS011;74198;51.618;8.334;2024-01-15T07:38:46;15.30;;;6.95;;
84101;SDS011;74198;51.618;8.334;2024-01-15T07:41:13;15.57;;;6.57;;
84101;SDS011;74198;51.618;8.334;2024-01-15T07:43:39;16.42;;;5.88;;
84101;SDS011;74198;51.618;8.334;2024-01-15T07:46:05;17.58;;;6.68;;
84101;SDS011;74198;51.618;8.334;2024-01-15T07:48:32;13.00;;;5.35;;
84101;SDS011;74198;51.618;8.334;2024-01-15T07:50:58;17.08;;;8.10;;
84101;SDS011;74198;51.618;8.334;2024-01-15T07:53:24;20.45;;;9.18;;
84101;SDS011;74198;51.618;8.334;2024-01-15T07:55:50;23.42;;;10.75;;
84101;SDS011;74198;51.618;8.334;2024-01-15T07:58:16;15.10;;;6.80;;
84101;SDS011;74198;51.618;8.334;2024-01-15T08:00:42;26.25;;;10.45;;
84101;SDS011;74198;51.618;8.334;2024-01-15T08:03:08;21.92;;;7.78;;
84101;SDS011;74198;51.618;8.334;2024-01-15T08:05:33;26.55;;;10.07;;
84101;SDS011;74198;51.618;8.334;2024-01-15T08:07:59;25.85;;;8.60;;
84101;SDS011;74198;51.618;8.334;2024-01-15T08:10:26;27.98;;;9.75;;
84101;SDS011;74198;51.618;8.334;2024-01-15T08:12:52;23.02;;;8.95;;
84101;SDS011;74198;51.618;8.334;2024-01-15T08:15:17;20.08;;;9.48;;
84101;SDS011;74198;51.618;8.334;2024-01-15T08:17:43;24.90;;;10.00;;
84101;SDS011;74198;51.618;8.334;2024-01-15T08:20:09;21.65;;;10.27;;
84101;SDS011;74198;51.618;8.334;2024-01-15T08:22:36;24.30;;;10.05;;
84101;SDS011;74198;51.618;8.334;2024-01-15T08:25:02;20.00;;;7.72;;
84101;SDS011;74198;51.618;8.334;2024-01-15T08:27:28;16.45;;;6.93;;
84101;SDS011;74198;51.618;8.334;2024-01-15T08:29:55;27.13;;;10.07;;
84101;SDS011;74198;51.618;8.334;2024-01-15T08:32:21;24.65;;;10.10;;
84101;SDS011;74198;51.618;8.334;2024-01-15T08:34:47;19.80;;;7.47;;
84101;SDS011;74198;51.618;8.334;2024-01-15T08:37:17;27.15;;;11.07;;
84101;SDS011;74198;51.618;8.334;2024-01-15T08:39:43;23.40;;;10.50;;
84101;SDS011;74198;51.618;8.334;2024-01-15T08:42:08;25.40;;;9.88;;
84101;SDS011;74198;51.618;8.334;2024-01-15T08:44:35;20.10;;;8.52;;
84101;SDS011;74198;51.618;8.334;2024-01-15T08:47:01;14.55;;;6.18;;
84101;SDS011;74198;51.618;8.334;2024-01-15T08:49:28;18.48;;;7.90;;
84101;SDS011;74198;51.618;8.334;2024-01-15T08:51:54;19.55;;;8.75;;
84101;SDS011;74198;51.618;8.334;2024-01-15T08:54:19;24.20;;;9.02;;
84101;SDS011;74198;51.618;8.334;2024-01-15T08:56:45;25.95;;;9.63;;
84101;SDS011;74198;51.618;8.334;2024-01-15T08:59:11;28.15;;;10.15;;
84101;SDS011;74198;51.618;8.334;2024-01-15T09:01:38;25.92;;;10.48;;
84101;SDS011;74198;51.618;8.334;2024-01-15T09:04:04;24.27;;;9.45;;
84101;SDS011;74198;51.618;8.334;2024-01-15T09:06:30;18.73;;;7.95;;
84101;SDS011;74198;51.618;8.334;2024-01-15T09:08:56;23.25;;;10.55;;
84101;SDS011;74198;51.618;8.334;2024-01-15T09:11:22;29.33;;;11.93;;
84101;SDS011;74198;51.618;8.334;2024-01-15T09:13:48;32.08;;;11.32;;
84101;SDS011;74198;51.618;8.334;2024-01-15T09:16:14;22.45;;;8.85;;
84101;SDS011;74198;51.618;8.334;2024-01-15T09:18:40;21.90;;;8.73;;
84101;SDS011;74198;51.618;8.334;2024-01-15T09:21:06;22.60;;;8.30;;
84101;SDS011;74198;51.618;8.334;2024-01-15T09:23:32;26.83;;;10.20;;
84101;SDS011;74198;51.618;8.334;2024-01-15T09:25:58;16.00;;;8.10;;
84101;SDS011;74198;51.618;8.334;2024-01-15T09:28:24;21.98;;;9.30;;
84101;SDS011;74198;51.618;8.334;2024-01-15T09:30:50;22.35;;;9.23;;
84101;SDS011;74198;51.618;8.334;2024-01-15T09:33:15;17.77;;;8.85;;
84101;SDS011;74198;51.618;8.334;2024-01-15T09:35:41;13.70;;;6.53;;
84101;SDS011;74198;51.618;8.334;2024-01-15T09:38:07;26.35;;;10.90;;
84101;SDS011;74198;51.618;8.334;2024-01-15T09:40:33;14.43;;;6.30;;
84101;SDS011;74198;51.618;8.334;2024-01-15T09:43:00;25.67;;;10.73;;
84101;SDS011;74198;51.618;8.334;2024-01-15T09:45:27;23.92;;;9.80;;
84101;SDS011;74198;51.618;8.334;2024-01-15T09:47:54;23.30;;;10.48;;
84101;SDS011;74198;51.618;8.334;2024-01-15T09:50:20;20.15;;;7.30;;
84101;SDS011;74198;51.618;8.334;2024-01-15T09:52:46;15.48;;;6.90;;
84101;SDS011;74198;51.618;8.334;2024-01-15T09:55:12;15.13;;;7.13;;
84101;SDS011;74198;51.618;8.334;2024-01-15T09:57:40;22.48;;;10.25;;
84101;SDS011;74198;51.618;8.334;2024-01-15T10:00:07;16.27;;;6.15;;
84101;SDS011;74198;51.618;8.334;2024-01-15T10:02:35;11.05;;;5.55;;
84101;SDS011;74198;51.618;8.334;2024-01-15T10:05:01;15.35;;;5.93;;
84101;SDS011;74198;51.618;8.334;2024-01-15T10:07:27;17.15;;;6.88;;
84101;SDS011;74198;51.618;8.334;2024-01-15T10:09:55;12.30;;;5.55;;
84101;SDS011;74198;51.618;8.334;2024-01-15T10:12:27;8.25;;;4.72;;
84101;SDS011;74198;51.618;8.334;2024-01-15T10:14:53;8.23;;;4.30;;
84101;SDS011;74198;51.618;8.334;2024-01-15T10:17:19;16.88;;;7.10;;
84101;SDS011;74198;51.618;8.334;2024-01-15T10:19:45;12.10;;;5.03;;
84101;SDS011;74198;51.618;8.334;2024-01-15T10:22:13;11.68;;;6.38;;
84101;SDS011;74198;51.618;8.334;2024-01-15T10:24:40;14.80;;;8.60;;
84101;SDS011;74198;51.618;8.334;2024-01-15T10:27:06;13.43;;;6.53;;
84101;SDS011;74198;51.618;8.334;2024-01-15T10:29:32;13.27;;;7.00;;
84101;SDS011;74198;51.618;8.334;2024-01-15T10:31:58;11.27;;;6.38;;
84101;SDS011;74198;51.618;8.334;2024-01-15T10:34:25;8.80;;;4.90;;
84101;SDS011;74198;51.618;8.334;2024-01-15T10:36:52;18.00;;;9.45;;
84101;SDS011;74198;51.618;8.334;2024-01-15T10:39:23;14.95;;;7.68;;
84101;SDS011;74198;51.618;8.334;2024-01-15T10:41:49;13.45;;;6.55;;
84101;SDS011;74198;51.618;8.334;2024-01-15T10:44:18;12.48;;;6.38;;
84101;SDS011;74198;51.618;8.334;2024-01-15T10:46:44;15.35;;;8.32;;
84101;SDS011;74198;51.618;8.334;2024-01-15T10:49:11;18.02;;;8.07;;
84101;SDS011;74198;51.618;8.334;2024-01-15T10:51:37;16.10;;;6.63;;
84101;SDS011;74198;51.618;8.334;2024-01-15T10:54:04;14.82;;;7.47;;
84101;SDS011;74198;51.618;8.334;2024-01-15T10:56:31;12.05;;;6.30;;
84101;SDS011;74198;51.618;8.334;2024-01-15T10:58:58;14.95;;;6.90;;
84101;SDS011;74198;51.618;8.334;2024-01-15T11:01:25;13.50;;;7.20;;
84101;SDS011;74198;51.618;8.334;2024-01-15T11:03:51;20.70;;;9.07;;
84101;SDS011;74198;51.618;8.334;2024-01-15T11:06:17;13.10;;;6.07;;
84101;SDS011;74198;51.618;8.334;2024-01-15T11:08:49;13.65;;;6.75;;
84101;SDS011;74198;51.618;8.334;2024-01-15T11:11:16;13.90;;;6.93;;
84101;SDS011;74198;51.618;8.334;2024-01-15T11:13:42;14.10;;;7.50;;
84101;SDS011;74198;51.618;8.334;2024-01-15T11:16:12;11.70;;;7.45;;
84101;SDS011;74198;51.618;8.334;2024-01-15T11:19:20;9.80;;;4.93;;
84101;SDS011;74198;51.618;8.334;2024-01-15T11:21:28;9.02;;;4.82;;
84101;SDS011;74198;51.618;8.334;2024-01-15T11:24:00;15.57;;;6.95;;
84101;SDS011;74198;51.618;8.334;2024-01-15T11:26:33;12.43;;;6.15;;
84101;SDS011;74198;51.618;8.334;2024-01-15T11:29:01;14.57;;;7.10;;
84101;SDS011;74198;51.618;8.334;2024-01-15T11:31:29;9.02;;;4.40;;
84101;SDS011;74198;51.618;8.334;2024-01-15T11:33:55;13.18;;;5.55;;
84101;SDS011;74198;51.618;8.334;2024-01-15T11:36:23;11.23;;;4.88;;
84101;SDS011;74198;51.618;8.334;2024-01-15T11:41:51;7.55;;;3.75;;
84101;SDS011;74198;51.618;8.334;2024-01-15T11:44:17;14.50;;;5.35;;
84101;SDS011;74198;51.618;8.334;2024-01-15T11:46:46;7.75;;;4.30;;
84101;SDS011;74198;51.618;8.334;2024-01-15T11:49:21;10.65;;;5.07;;
84101;SDS011;74198;51.618;8.334;2024-01-15T11:51:52;8.27;;;4.55;;
84101;SDS011;74198;51.618;8.334;2024-01-15T11:54:18;9.82;;;5.70;;
84101;SDS011;74198;51.618;8.334;2024-01-15T11:56:46;8.60;;;4.22;;
84101;SDS011;74198;51.618;8.334;2024-01-15T11:59:12;7.75;;;4.53;;
84101;SDS011;74198;51.618;8.334;2024-01-15T12:01:38;9.38;;;4.57;;
84101;SDS011;74198;51.618;8.334;2024-01-15T12:04:04;10.38;;;4.53;;
84101;SDS011;74198;51.618;8.334;2024-01-15T12:06:31;13.20;;;4.68;;
84101;SDS011;74198;51.618;8.334;2024-01-15T12:09:06;13.18;;;4.68;;
84101;SDS011;74198;51.618;8.334;2024-01-15T12:11:32;7.75;;;3.80;;
84101;SDS011;74198;51.618;8.334;2024-01-15T12:13:59;7.05;;;4.35;;
84101;SDS011;74198;51.618;8.334;2024-01-15T12:16:25;12.70;;;4.50;;
84101;SDS011;74198;51.618;8.334;2024-01-15T12:18:51;6.65;;;4.15;;
84101;SDS011;74198;51.618;8.334;2024-01-15T12:21:17;11.38;;;4.10;;
84101;SDS011;74198;51.618;8.334;2024-01-15T12:23:46;9.88;;;4.25;;
84101;SDS011;74198;51.618;8.334;2024-01-15T12:26:13;11.45;;;5.40;;
84101;SDS011;74198;51.618;8.334;2024-01-15T12:28:39;11.68;;;5.15;;
84101;SDS011;74198;51.618;8.334;2024-01-15T12:31:05;12.43;;;4.82;;
84101;SDS011;74198;51.618;8.334;2024-01-15T12:33:32;8.48;;;4.20;;
84101;SDS011;74198;51.618;8.334;2024-01-15T12:35:58;7.00;;;4.00;;
84101;SDS011;74198;51.618;8.334;2024-01-15T12:38:24;11.55;;;5.55;;
84101;SDS011;74198;51.618;8.334;2024-01-15T12:40:50;10.13;;;4.90;;
84101;SDS011;74198;51.618;8.334;2024-01-15T12:43:17;12.32;;;5.18;;
84101;SDS011;74198;51.618;8.334;2024-01-15T12:45:43;9.13;;;4.63;;
84101;SDS011;74198;51.618;8.334;2024-01-15T12:48:09;8.93;;;4.30;;
84101;SDS011;74198;51.618;8.334;2024-01-15T12:50:35;8.45;;;4.22;;
84101;SDS011;74198;51.618;8.334;2024-01-15T12:53:01;9.32;;;5.05;;
84101;SDS011;74198;51.618;8.334;2024-01-15T12:55:27;11.45;;;4.63;;
84101;SDS011;74198;51.618;8.334;2024-01-15T12:57:53;7.97;;;4.85;;
84101;SDS011;74198;51.618;8.334;2024-01-15T13:00:20;12.07;;;6.20;;
84101;SDS011;74198;51.618;8.334;2024-01-15T13:02:46;12.93;;;6.75;;
84101;SDS011;74198;51.618;8.334;2024-01-15T13:05:12;12.80;;;4.90;;
84101;SDS011;74198;51.618;8.334;2024-01-15T13:07:38;10.15;;;5.32;;
84101;SDS011;74198;51.618;8.334;2024-01-15T13:10:05;11.15;;;5.35;;
84101;SDS011;74198;51.618;8.334;2024-01-15T13:12:31;16.52;;;3.53;;
84101;SDS011;74198;51.618;8.334;2024-01-15T13:14:58;7.55;;;3.75;;
84101;SDS011;74198;51.618;8.334;2024-01-15T13:17:24;5.35;;;3.25;;
84101;SDS011;74198;51.618;8.334;2024-01-15T13:19:50;9.02;;;4.78;;
84101;SDS011;74198;51.618;8.334;2024-01-15T13:22:15;7.35;;;4.32;;
84101;SDS011;74198;51.618;8.334;2024-01-15T13:24:41;5.38;;;3.08;;
84101;SDS011;74198;51.618;8.334;2024-01-15T13:27:08;10.18;;;4.53;;
84101;SDS011;74198;51.618;8.334;2024-01-15T13:29:34;7.15;;;4.10;;
84101;SDS011;74198;51.618;8.334;2024-01-15T13:32:00;7.28;;;3.58;;
84101;SDS011;74198;51.618;8.334;2024-01-15T13:34:26;6.15;;;3.45;;
84101;SDS011;74198;51.618;8.334;2024-01-15T13:36:52;5.68;;;3.78;;
84101;SDS011;74198;51.618;8.334;2024-01-15T13:39:18;8.02;;;2.33;;
84101;SDS011;74198;51.618;8.334;2024-01-15T13:41:48;9.50;;;4.15;;
84101;SDS011;74198;51.618;8.334;2024-01-15T13:44:14;10.48;;;3.83;;
84101;SDS011;74198;51.618;8.334;2024-01-15T13:46:40;8.27;;;3.10;;
84101;SDS011;74198;51.618;8.334;2024-01-15T13:49:06;8.95;;;3.20;;
84101;SDS011;74198;51.618;8.334;2024-01-15T13:51:34;8.38;;;3.30;;
84101;SDS011;74198;51.618;8.334;2024-01-15T13:54:00;7.55;;;3.58;;
84101;SDS011;74198;51.618;8.334;2024-01-15T13:56:26;10.23;;;4.43;;
84101;SDS011;74198;51.618;8.334;2024-01-15T13:58:56;7.30;;;3.55;;
84101;SDS011;74198;51.618;8.334;2024-01-15T14:01:23;4.13;;;1.88;;
84101;SDS011;74198;51.618;8.334;2024-01-15T14:03:49;10.52;;;4.88;;
84101;SDS011;74198;51.618;8.334;2024-01-15T14:06:15;9.57;;;4.82;;
84101;SDS011;74198;51.618;8.334;2024-01-15T14:08:41;8.63;;;4.80;;
84101;SDS011;74198;51.618;8.334;2024-01-15T14:11:07;12.55;;;5.55;;
84101;SDS011;74198;51.618;8.334;2024-01-15T14:13:33;10.48;;;4.43;;
84101;SDS011;74198;51.618;8.334;2024-01-15T14:15:59;8.98;;;5.07;;
84101;SDS011;74198;51.618;8.334;2024-01-15T14:18:26;11.77;;;6.25;;
84101;SDS011;74198;51.618;8.334;2024-01-15T14:20:52;8.85;;;5.25;;
84101;SDS011;74198;51.618;8.334;2024-01-15T14:23:21;10.43;;;6.03;;
84101;SDS011;74198;51.618;8.334;2024-01-15T14:25:47;11.90;;;5.43;;
84101;SDS011;74198;51.618;8.334;2024-01-15T14:28:13;11.18;;;5.60;;
84101;SDS011;74198;51.618;8.334;2024-01-15T14:30:39;10.10;;;5.03;;